sensor_id;sensor_type;location;lat;lon;timestamp;P1;durP1;ratioP1;P2;durP2;ratioP2
26080;SDS011;13991;51.174;4.438;2023-05-10T00:02:06;25.77;;;10.40;;
26080;SDS011;13991;51.174;4.438;2023-05-10T00:04:31;22.70;;;10.13;;
26080;SDS011;13991;51.174;4.438;2023-05-10T00:06:57;24.10;;;9.47;;
26080;SDS011;13991;51.174;4.438;2023-05-10T00:09:23;22.80;;;9.63;;
26080;SDS011;13991;51.174;4.438;2023-05-10T00:11:49;29.00;;;10.23;;
26080;SDS011;13991;51.174;4.438;2023-05-10T00:14:14;30.00;;;11.17;;
26080;SDS011;13991;51.174;4.438;2023-05-10T00:16:40;18.47;;;10.53;;
26080;SDS011;13991;51.174;4.438;2023-05-10T00:19:06;18.47;;;10.27;;
26080;SDS011;13991;51.174;4.438;2023-05-10T00:21:31;31.80;;;12.57;;
26080;SDS011;13991;51.174;4.438;2023-05-10T00:23:58;24.23;;;12.27;;
26080;SDS011;13991;51.174;4.438;2023-05-10T00:26:24;30.97;;;13.13;;
26080;SDS011;13991;51.174;4.438;2023-05-10T00:28:50;33.63;;;13.07;;
26080;SDS011;13991;51.174;4.438;2023-05-10T00:31:16;28.03;;;12.40;;
26080;SDS011;13991;51.174;4.438;2023-05-10T00:33:41;39.67;;;13.23;;
26080;SDS011;13991;51.174;4.438;2023-05-10T00:36:07;28.47;;;11.93;;
26080;SDS011;13991;51.174;4.438;2023-05-10T00:38:33;29.30;;;12.40;;
26080;SDS011;13991;51.174;4.438;2023-05-10T00:40:59;32.13;;;14.07;;
26080;SDS011;13991;51.174;4.438;2023-05-10T00:43:25;36.13;;;14.00;;
26080;SDS011;13991;51.174;4.438;2023-05-10T00:45:50;32.27;;;13.63;;
26080;SDS011;13991;51.174;4.438;2023-05-10T00:48:17;36.33;;;14.03;;
26080;SDS011;13991;51.174;4.438;2023-05-10T00:50:43;32.80;;;13.93;;
26080;SDS011;13991;51.174;4.438;2023-05-10T00:53:09;31.37;;;14.17;;
26080;SDS011;13991;51.174;4.438;2023-05-10T00:55:35;32.63;;;15.07;;
26080;SDS011;13991;51.174;4.438;2023-05-10T00:58:02;30.63;;;12.57;;
26080;SDS011;13991;51.174;4.438;2023-05-10T01:00:28;36.27;;;14.57;;
26080;SDS011;13991;51.174;4.438;2023-05-10T01:02:54;26.43;;;12.67;;
26080;SDS011;13991;51.174;4.438;2023-05-10T01:05:20;32.80;;;14.03;;
26080;SDS011;13991;51.174;4.438;2023-05-10T01:07:46;41.03;;;12.77;;
26080;SDS011;13991;51.174;4.438;2023-05-10T01:10:13;36.80;;;12.80;;
26080;SDS011;13991;51.174;4.438;2023-05-10T01:12:39;35.07;;;13.70;;
26080;SDS011;13991;51.174;4.438;2023-05-10T01:15:07;29.60;;;14.83;;
26080;SDS011;13991;51.174;4.438;2023-05-10T01:17:37;41.93;;;16.13;;
26080;SDS011;13991;51.174;4.438;2023-05-10T01:20:06;44.27;;;17.30;;
26080;SDS011;13991;51.174;4.438;2023-05-10T01:31:18;42.53;;;16.70;;
26080;SDS011;13991;51.174;4.438;2023-05-10T01:33:55;39.37;;;16.33;;
26080;SDS011;13991;51.174;4.438;2023-05-10T01:36:43;43.37;;;16.87;;
26080;SDS011;13991;51.174;4.438;2023-05-10T01:39:24;41.60;;;16.07;;
26080;SDS011;13991;51.174;4.438;2023-05-10T01:42:17;40.43;;;16.77;;
26080;SDS011;13991;51.174;4.438;2023-05-10T01:48:02;44.17;;;16.53;;
26080;SDS011;13991;51.174;4.438;2023-05-10T01:50:18;39.80;;;15.97;;
26080;SDS011;13991;51.174;4.438;2023-05-10T01:52:48;33.10;;;14.40;;
26080;SDS011;13991;51.174;4.438;2023-05-10T01:55:20;52.20;;;16.53;;
26080;SDS011;13991;51.174;4.438;2023-05-10T01:57:48;43.33;;;17.10;;
26080;SDS011;13991;51.174;4.438;2023-05-10T02:00:19;37.67;;;15.87;;
26080;SDS011;13991;51.174;4.438;2023-05-10T02:02:46;28.57;;;14.43;;
26080;SDS011;13991;51.174;4.438;2023-05-10T02:05:14;43.93;;;17.00;;
26080;SDS011;13991;51.174;4.438;2023-05-10T02:07:41;36.23;;;14.93;;
26080;SDS011;13991;51.174;4.438;2023-05-10T02:10:08;35.27;;;15.87;;
26080;SDS011;13991;51.174;4.438;2023-05-10T02:12:36;37.90;;;16.60;;
26080;SDS011;13991;51.174;4.438;2023-05-10T02:15:04;32.57;;;15.13;;
26080;SDS011;13991;51.174;4.438;2023-05-10T02:17:32;43.07;;;16.63;;
26080;SDS011;13991;51.174;4.438;2023-05-10T02:19:59;34.67;;;15.10;;
26080;SDS011;13991;51.174;4.438;2023-05-10T02:22:27;35.67;;;16.27;;
26080;SDS011;13991;51.174;4.438;2023-05-10T02:24:57;39.97;;;16.37;;
26080;SDS011;13991;51.174;4.438;2023-05-10T02:27:24;41.37;;;17.97;;
26080;SDS011;13991;51.174;4.438;2023-05-10T02:29:52;33.57;;;15.67;;
26080;SDS011;13991;51.174;4.438;2023-05-10T02:32:19;40.57;;;18.20;;
26080;SDS011;13991;51.174;4.438;2023-05-10T02:34:47;36.33;;;16.80;;
26080;SDS011;13991;51.174;4.438;2023-05-10T02:37:17;37.13;;;17.90;;
26080;SDS011;13991;51.174;4.438;2023-05-10T02:39:46;41.70;;;17.87;;
26080;SDS011;13991;51.174;4.438;2023-05-10T02:42:16;50.83;;;19.93;;
26080;SDS011;13991;51.174;4.438;2023-05-10T02:44:43;47.47;;;19.93;;
26080;SDS011;13991;51.174;4.438;2023-05-10T02:47:12;47.13;;;20.77;;
26080;SDS011;13991;51.174;4.438;2023-05-10T02:49:38;44.67;;;20.53;;
26080;SDS011;13991;51.174;4.438;2023-05-10T02:52:04;56.63;;;23.40;;
26080;SDS011;13991;51.174;4.438;2023-05-10T02:54:39;57.00;;;23.03;;
26080;SDS011;13991;51.174;4.438;2023-05-10T02:57:11;56.80;;;25.33;;
26080;SDS011;13991;51.174;4.438;2023-05-10T02:59:44;61.97;;;27.40;;
26080;SDS011;13991;51.174;4.438;2023-05-10T03:02:10;69.00;;;31.67;;
26080;SDS011;13991;51.174;4.438;2023-05-10T03:04:39;67.00;;;31.90;;
26080;SDS011;13991;51.174;4.438;2023-05-10T03:07:05;149.30;;;54.17;;
26080;SDS011;13991;51.174;4.438;2023-05-10T03:09:31;152.07;;;57.10;;
26080;SDS011;13991;51.174;4.438;2023-05-10T03:12:07;183.40;;;69.73;;
26080;SDS011;13991;51.174;4.438;2023-05-10T03:20:22;178.53;;;67.37;;
26080;SDS011;13991;51.174;4.438;2023-05-10T03:23:11;170.07;;;67.47;;
26080;SDS011;13991;51.174;4.438;2023-05-10T03:25:40;151.60;;;61.23;;
26080;SDS011;13991;51.174;4.438;2023-05-10T03:28:08;145.07;;;59.20;;
26080;SDS011;13991;51.174;4.438;2023-05-10T03:30:34;117.33;;;48.60;;
26080;SDS011;13991;51.174;4.438;2023-05-10T03:33:05;114.17;;;45.53;;
26080;SDS011;13991;51.174;4.438;2023-05-10T03:35:31;112.90;;;46.57;;
26080;SDS011;13991;51.174;4.438;2023-05-10T03:37:57;119.67;;;48.33;;
26080;SDS011;13991;51.174;4.438;2023-05-10T03:40:23;106.43;;;44.33;;
26080;SDS011;13991;51.174;4.438;2023-05-10T03:42:49;94.80;;;42.73;;
26080;SDS011;13991;51.174;4.438;2023-05-10T03:45:15;102.53;;;43.43;;
26080;SDS011;13991;51.174;4.438;2023-05-10T03:47:41;102.23;;;41.93;;
26080;SDS011;13991;51.174;4.438;2023-05-10T03:50:06;107.13;;;42.67;;
26080;SDS011;13991;51.174;4.438;2023-05-10T03:52:32;93.80;;;38.87;;
26080;SDS011;13991;51.174;4.438;2023-05-10T03:54:58;97.63;;;39.30;;
26080;SDS011;13991;51.174;4.438;2023-05-10T03:57:24;92.90;;;36.93;;
26080;SDS011;13991;51.174;4.438;2023-05-10T03:59:50;86.53;;;38.23;;
26080;SDS011;13991;51.174;4.438;2023-05-10T04:02:15;97.30;;;36.40;;
26080;SDS011;13991;51.174;4.438;2023-05-10T04:04:41;84.97;;;36.03;;
26080;SDS011;13991;51.174;4.438;2023-05-10T04:07:07;97.70;;;37.23;;
26080;SDS011;13991;51.174;4.438;2023-05-10T04:09:32;99.23;;;37.40;;
26080;SDS011;13991;51.174;4.438;2023-05-10T04:11:58;103.30;;;37.33;;
26080;SDS011;13991;51.174;4.438;2023-05-10T04:14:25;93.00;;;38.13;;
26080;SDS011;13991;51.174;4.438;2023-05-10T04:16:51;97.90;;;37.03;;
26080;SDS011;13991;51.174;4.438;2023-05-10T04:19:16;84.70;;;34.80;;
26080;SDS011;13991;51.174;4.438;2023-05-10T04:21:42;86.43;;;35.07;;
26080;SDS011;13991;51.174;4.438;2023-05-10T04:24:08;89.40;;;35.60;;
26080;SDS011;13991;51.174;4.438;2023-05-10T04:26:33;85.20;;;34.17;;
26080;SDS011;13991;51.174;4.438;2023-05-10T04:28:59;87.03;;;32.60;;
26080;SDS011;13991;51.174;4.438;2023-05-10T04:31:25;98.67;;;34.57;;
26080;SDS011;13991;51.174;4.438;2023-05-10T04:33:51;76.07;;;28.83;;
26080;SDS011;13991;51.174;4.438;2023-05-10T04:36:17;73.50;;;31.97;;
26080;SDS011;13991;51.174;4.438;2023-05-10T04:38:43;67.57;;;29.53;;
26080;SDS011;13991;51.174;4.438;2023-05-10T04:41:09;74.07;;;31.23;;
26080;SDS011;13991;51.174;4.438;2023-05-10T04:43:36;67.20;;;31.00;;
26080;SDS011;13991;51.174;4.438;2023-05-10T04:46:02;74.43;;;30.27;;
26080;SDS011;13991;51.174;4.438;2023-05-10T04:48:29;79.00;;;30.87;;
26080;SDS011;13991;51.174;4.438;2023-05-10T04:50:55;81.10;;;31.50;;
26080;SDS011;13991;51.174;4.438;2023-05-10T04:53:21;75.80;;;31.37;;
26080;SDS011;13991;51.174;4.438;2023-05-10T04:55:47;77.77;;;31.90;;
26080;SDS011;13991;51.174;4.438;2023-05-10T04:58:13;67.70;;;30.37;;
26080;SDS011;13991;51.174;4.438;2023-05-10T05:00:39;84.23;;;34.03;;
26080;SDS011;13991;51.174;4.438;2023-05-10T05:03:05;87.03;;;35.77;;
26080;SDS011;13991;51.174;4.438;2023-05-10T05:05:31;79.47;;;33.27;;
26080;SDS011;13991;51.174;4.438;2023-05-10T05:07:56;79.20;;;32.93;;
26080;SDS011;13991;51.174;4.438;2023-05-10T05:10:22;84.03;;;35.37;;
26080;SDS011;13991;51.174;4.438;2023-05-10T05:12:48;71.70;;;32.93;;
26080;SDS011;13991;51.174;4.438;2023-05-10T05:15:13;85.60;;;33.67;;
26080;SDS011;13991;51.174;4.438;2023-05-10T05:17:41;85.40;;;34.73;;
26080;SDS011;13991;51.174;4.438;2023-05-10T05:20:08;80.07;;;34.27;;
26080;SDS011;13991;51.174;4.438;2023-05-10T05:22:35;78.43;;;33.93;;
26080;SDS011;13991;51.174;4.438;2023-05-10T05:25:01;70.47;;;32.10;;
26080;SDS011;13991;51.174;4.438;2023-05-10T05:27:28;81.80;;;33.30;;
26080;SDS011;13991;51.174;4.438;2023-05-10T05:29:57;79.90;;;34.43;;
26080;SDS011;13991;51.174;4.438;2023-05-10T05:32:23;71.27;;;33.50;;
26080;SDS011;13991;51.174;4.438;2023-05-10T05:34:50;68.40;;;32.67;;
26080;SDS011;13991;51.174;4.438;2023-05-10T05:37:17;75.37;;;33.83;;
26080;SDS011;13991;51.174;4.438;2023-05-10T05:39:44;85.47;;;35.33;;
26080;SDS011;13991;51.174;4.438;2023-05-10T05:42:10;77.30;;;36.57;;
26080;SDS011;13991;51.174;4.438;2023-05-10T05:44:36;90.13;;;38.47;;
26080;SDS011;13991;51.174;4.438;2023-05-10T05:47:02;87.60;;;38.33;;
26080;SDS011;13991;51.174;4.438;2023-05-10T05:49:29;68.20;;;31.67;;
26080;SDS011;13991;51.174;4.438;2023-05-10T05:51:58;69.60;;;33.17;;
26080;SDS011;13991;51.174;4.438;2023-05-10T05:54:24;66.80;;;31.73;;
26080;SDS011;13991;51.174;4.438;2023-05-10T05:56:50;63.77;;;31.40;;
26080;SDS011;13991;51.174;4.438;2023-05-10T05:59:16;62.07;;;29.77;;
26080;SDS011;13991;51.174;4.438;2023-05-10T06:01:41;58.47;;;28.30;;
26080;SDS011;13991;51.174;4.438;2023-05-10T06:04:07;62.43;;;29.63;;
26080;SDS011;13991;51.174;4.438;2023-05-10T06:06:33;56.37;;;27.37;;
26080;SDS011;13991;51.174;4.438;2023-05-10T06:08:58;61.67;;;29.07;;
26080;SDS011;13991;51.174;4.438;2023-05-10T06:11:24;58.10;;;28.70;;
26080;SDS011;13991;51.174;4.438;2023-05-10T06:13:51;61.53;;;28.47;;
26080;SDS011;13991;51.174;4.438;2023-05-10T06:16:16;61.27;;;27.63;;
26080;SDS011;13991;51.174;4.438;2023-05-10T06:18:42;56.77;;;27.83;;
26080;SDS011;13991;51.174;4.438;2023-05-10T06:21:08;60.83;;;27.70;;
26080;SDS011;13991;51.174;4.438;2023-05-10T06:23:34;51.90;;;25.47;;
26080;SDS011;13991;51.174;4.438;2023-05-10T06:26:00;58.53;;;26.20;;
26080;SDS011;13991;51.174;4.438;2023-05-10T06:28:26;55.77;;;27.13;;
26080;SDS011;13991;51.174;4.438;2023-05-10T06:30:51;62.10;;;29.10;;
26080;SDS011;13991;51.174;4.438;2023-05-10T06:33:17;75.43;;;35.27;;
26080;SDS011;13991;51.174;4.438;2023-05-10T06:35:43;74.00;;;35.67;;
26080;SDS011;13991;51.174;4.438;2023-05-10T06:38:08;85.37;;;37.30;;
26080;SDS011;13991;51.174;4.438;2023-05-10T06:40:34;77.90;;;35.73;;
26080;SDS011;13991;51.174;4.438;2023-05-10T06:43:00;80.07;;;35.77;;
26080;SDS011;13991;51.174;4.438;2023-05-10T06:45:26;97.87;;;38.03;;
26080;SDS011;13991;51.174;4.438;2023-05-10T06:47:52;78.93;;;35.37;;
26080;SDS011;13991;51.174;4.438;2023-05-10T06:50:18;73.00;;;34.43;;
26080;SDS011;13991;51.174;4.438;2023-05-10T06:52:43;73.33;;;34.73;;
26080;SDS011;13991;51.174;4.438;2023-05-10T06:55:09;76.00;;;36.23;;
26080;SDS011;13991;51.174;4.438;2023-05-10T06:57:35;65.63;;;33.57;;
26080;SDS011;13991;51.174;4.438;2023-05-10T07:00:01;72.53;;;33.33;;
26080;SDS011;13991;51.174;4.438;2023-05-10T07:02:29;64.30;;;30.03;;
26080;SDS011;13991;51.174;4.438;2023-05-10T07:04:54;67.27;;;30.93;;
26080;SDS011;13991;51.174;4.438;2023-05-10T07:07:20;66.23;;;30.83;;
26080;SDS011;13991;51.174;4.438;2023-05-10T07:09:46;66.80;;;32.80;;
26080;SDS011;13991;51.174;4.438;2023-05-10T07:12:12;66.83;;;30.23;;
26080;SDS011;13991;51.174;4.438;2023-05-10T07:14:37;66.80;;;32.60;;
26080;SDS011;13991;51.174;4.438;2023-05-10T07:17:03;68.60;;;34.07;;
26080;SDS011;13991;51.174;4.438;2023-05-10T07:19:29;80.97;;;33.77;;
26080;SDS011;13991;51.174;4.438;2023-05-10T07:21:54;67.67;;;33.20;;
26080;SDS011;13991;51.174;4.438;2023-05-10T07:24:20;71.17;;;34.77;;
26080;SDS011;13991;51.174;4.438;2023-05-10T07:26:46;72.80;;;33.73;;
26080;SDS011;13991;51.174;4.438;2023-05-10T07:29:11;58.13;;;30.73;;
26080;SDS011;13991;51.174;4.438;2023-05-10T07:31:37;54.40;;;28.00;;
26080;SDS011;13991;51.174;4.438;2023-05-10T07:34:03;55.90;;;30.17;;
26080;SDS011;13991;51.174;4.438;2023-05-10T07:36:28;59.53;;;29.10;;
26080;SDS011;13991;51.174;4.438;2023-05-10T07:38:54;52.30;;;26.93;;
26080;SDS011;13991;51.174;4.438;2023-05-10T07:41:21;55.40;;;28.10;;
26080;SDS011;13991;51.174;4.438;2023-05-10T07:43:47;56.10;;;27.27;;
26080;SDS011;13991;51.174;4.438;2023-05-10T07:46:13;53.27;;;26.87;;
26080;SDS011;13991;51.174;4.438;2023-05-10T07:48:38;51.50;;;26.70;;
26080;SDS011;13991;51.174;4.438;2023-05-10T07:51:04;55.70;;;24.67;;
26080;SDS011;13991;51.174;4.438;2023-05-10T07:53:31;51.17;;;25.57;;
26080;SDS011;13991;51.174;4.438;2023-05-10T07:55:57;47.93;;;24.17;;
26080;SDS011;13991;51.174;4.438;2023-05-10T07:58:23;49.77;;;25.60;;
26080;SDS011;13991;51.174;4.438;2023-05-10T08:00:49;48.47;;;24.73;;
26080;SDS011;13991;51.174;4.438;2023-05-10T08:03:15;44.00;;;22.13;;
26080;SDS011;13991;51.174;4.438;2023-05-10T08:05:41;48.67;;;24.07;;
26080;SDS011;13991;51.174;4.438;2023-05-10T08:08:06;52.07;;;27.57;;
26080;SDS011;13991;51.174;4.438;2023-05-10T08:10:32;59.40;;;29.13;;
26080;SDS011;13991;51.174;4.438;2023-05-10T08:12:58;56.53;;;30.30;;
26080;SDS011;13991;51.174;4.438;2023-05-10T08:15:24;58.67;;;30.83;;
26080;SDS011;13991;51.174;4.438;2023-05-10T08:17:51;50.33;;;28.00;;
26080;SDS011;13991;51.174;4.438;2023-05-10T08:20:17;43.47;;;23.70;;
26080;SDS011;13991;51.174;4.438;2023-05-10T08:22:44;55.00;;;26.73;;
26080;SDS011;13991;51.174;4.438;2023-05-10T08:25:11;51.67;;;26.73;;
26080;SDS011;13991;51.174;4.438;2023-05-10T08:27:36;50.17;;;26.00;;
26080;SDS011;13991;51.174;4.438;2023-05-10T08:30:02;52.27;;;27.60;;
26080;SDS011;13991;51.174;4.438;2023-05-10T08:32:28;47.17;;;26.03;;
26080;SDS011;13991;51.174;4.438;2023-05-10T08:34:54;75.20;;;27.37;;
26080;SDS011;13991;51.174;4.438;2023-05-10T08:37:20;53.97;;;27.73;;
26080;SDS011;13991;51.174;4.438;2023-05-10T08:39:47;56.60;;;28.00;;
26080;SDS011;13991;51.174;4.438;2023-05-10T08:42:13;55.33;;;27.80;;
26080;SDS011;13991;51.174;4.438;2023-05-10T08:44:44;57.97;;;26.53;;
26080;SDS011;13991;51.174;4.438;2023-05-10T08:47:12;51.77;;;25.53;;
26080;SDS011;13991;51.174;4.438;2023-05-10T08:49:39;43.33;;;23.27;;
26080;SDS011;13991;51.174;4.438;2023-05-10T08:52:06;41.00;;;21.20;;
26080;SDS011;13991;51.174;4.438;2023-05-10T08:54:33;37.97;;;19.70;;
26080;SDS011;13991;51.174;4.438;2023-05-10T08:56:59;38.80;;;18.90;;
26080;SDS011;13991;51.174;4.438;2023-05-10T08:59:25;42.70;;;20.70;;
26080;SDS011;13991;51.174;4.438;2023-05-10T09:01:51;32.53;;;17.03;;
26080;SDS011;13991;51.174;4.438;2023-05-10T09:04:19;36.73;;;18.60;;
26080;SDS011;13991;51.174;4.438;2023-05-10T09:06:46;41.87;;;19.07;;
26080;SDS011;13991;51.174;4.438;2023-05-10T09:09:12;37.17;;;18.40;;
26080;SDS011;13991;51.174;4.438;2023-05-10T09:11:39;33.10;;;17.47;;
26080;SDS011;13991;51.174;4.438;2023-05-10T09:14:05;40.27;;;18.33;;
26080;SDS011;13991;51.174;4.438;2023-05-10T09:16:31;41.73;;;17.73;;
26080;SDS011;13991;51.174;4.438;2023-05-10T09:18:57;34.67;;;15.90;;
26080;SDS011;13991;51.174;4.438;2023-05-10T09:21:22;36.30;;;18.43;;
26080;SDS011;13991;51.174;4.438;2023-05-10T09:23:48;45.63;;;20.50;;
26080;SDS011;13991;51.174;4.438;2023-05-10T09:26:15;37.93;;;19.13;;
26080;SDS011;13991;51.174;4.438;2023-05-10T09:31:17;41.97;;;17.37;;
26080;SDS011;13991;51.174;4.438;2023-05-10T09:33:46;41.63;;;17.47;;
26080;SDS011;13991;51.174;4.438;2023-05-10T09:36:13;50.97;;;19.30;;
26080;SDS011;13991;51.174;4.438;2023-05-10T09:38:49;38.67;;;18.13;;
26080;SDS011;13991;51.174;4.438;2023-05-10T09:41:23;39.50;;;18.30;;
26080;SDS011;13991;51.174;4.438;2023-05-10T09:43:50;45.33;;;16.83;;
26080;SDS011;13991;51.174;4.438;2023-05-10T09:46:21;40.67;;;18.57;;
26080;SDS011;13991;51.174;4.438;2023-05-10T09:48:47;46.00;;;18.90;;
26080;SDS011;13991;51.174;4.438;2023-05-10T09:51:23;40.97;;;18.07;;
26080;SDS011;13991;51.174;4.438;2023-05-10T09:54:09;43.33;;;17.33;;
26080;SDS011;13991;51.174;4.438;2023-05-10T09:56:38;42.93;;;17.20;;
26080;SDS011;13991;51.174;4.438;2023-05-10T09:59:05;55.47;;;16.83;;
26080;SDS011;13991;51.174;4.438;2023-05-10T10:01:33;50.03;;;15.33;;
26080;SDS011;13991;51.174;4.438;2023-05-10T10:04:02;29.73;;;14.07;;
26080;SDS011;13991;51.174;4.438;2023-05-10T10:06:35;50.53;;;14.97;;
26080;SDS011;13991;51.174;4.438;2023-05-10T10:09:01;35.20;;;14.17;;
26080;SDS011;13991;51.174;4.438;2023-05-10T10:11:28;37.03;;;13.40;;
26080;SDS011;13991;51.174;4.438;2023-05-10T10:13:54;32.90;;;13.13;;
26080;SDS011;13991;51.174;4.438;2023-05-10T10:16:20;37.50;;;13.47;;
26080;SDS011;13991;51.174;4.438;2023-05-10T10:18:46;38.80;;;13.47;;
26080;SDS011;13991;51.174;4.438;2023-05-10T10:21:13;27.37;;;12.47;;
26080;SDS011;13991;51.174;4.438;2023-05-10T10:23:40;34.47;;;13.20;;
26080;SDS011;13991;51.174;4.438;2023-05-10T10:26:06;36.87;;;12.93;;
26080;SDS011;13991;51.174;4.438;2023-05-10T10:28:56;28.77;;;11.97;;
26080;SDS011;13991;51.174;4.438;2023-05-10T10:34:16;30.03;;;12.43;;
26080;SDS011;13991;51.174;4.438;2023-05-10T10:36:47;30.40;;;11.43;;
26080;SDS011;13991;51.174;4.438;2023-05-10T10:39:13;29.07;;;12.80;;
26080;SDS011;13991;51.174;4.438;2023-05-10T10:41:49;34.73;;;13.33;;
26080;SDS011;13991;51.174;4.438;2023-05-10T10:49:33;28.00;;;11.70;;
26080;SDS011;13991;51.174;4.438;2023-05-10T10:52:25;35.10;;;12.37;;
26080;SDS011;13991;51.174;4.438;2023-05-10T10:57:50;27.07;;;11.00;;
26080;SDS011;13991;51.174;4.438;2023-05-10T11:03:09;27.67;;;12.10;;
26080;SDS011;13991;51.174;4.438;2023-05-10T11:10:51;25.27;;;11.73;;
26080;SDS011;13991;51.174;4.438;2023-05-10T11:13:26;26.23;;;11.87;;
26080;SDS011;13991;51.174;4.438;2023-05-10T11:15:54;25.70;;;12.27;;
26080;SDS011;13991;51.174;4.438;2023-05-10T11:18:26;26.93;;;12.03;;
26080;SDS011;13991;51.174;4.438;2023-05-10T11:20:57;23.07;;;11.73;;
26080;SDS011;13991;51.174;4.438;2023-05-10T11:23:31;31.00;;;11.73;;
26080;SDS011;13991;51.174;4.438;2023-05-10T11:26:12;28.73;;;11.83;;
26080;SDS011;13991;51.174;4.438;2023-05-10T11:28:45;33.97;;;11.63;;
26080;SDS011;13991;51.174;4.438;2023-05-10T11:31:15;22.23;;;11.80;;
26080;SDS011;13991;51.174;4.438;2023-05-10T11:33:45;25.67;;;11.27;;
26080;SDS011;13991;51.174;4.438;2023-05-10T11:36:16;33.63;;;11.60;;
26080;SDS011;13991;51.174;4.438;2023-05-10T11:38:43;23.77;;;12.17;;
26080;SDS011;13991;51.174;4.438;2023-05-10T11:41:09;28.33;;;11.17;;
26080;SDS011;13991;51.174;4.438;2023-05-10T11:43:36;26.00;;;11.07;;
26080;SDS011;13991;51.174;4.438;2023-05-10T11:46:07;25.47;;;11.20;;
26080;SDS011;13991;51.174;4.438;2023-05-10T11:48:35;25.40;;;11.90;;
26080;SDS011;13991;51.174;4.438;2023-05-10T11:51:01;24.10;;;11.10;;
26080;SDS011;13991;51.174;4.438;2023-05-10T11:53:29;22.80;;;11.27;;
26080;SDS011;13991;51.174;4.438;2023-05-10T11:56:02;22.93;;;11.70;;
26080;SDS011;13991;51.174;4.438;2023-05-10T11:58:29;29.97;;;10.87;;
26080;SDS011;13991;51.174;4.438;2023-05-10T12:00:56;19.43;;;9.80;;
26080;SDS011;13991;51.174;4.438;2023-05-10T12:03:23;27.50;;;10.97;;
26080;SDS011;13991;51.174;4.438;2023-05-10T12:05:48;24.13;;;11.20;;
26080;SDS011;13991;51.174;4.438;2023-05-10T12:08:14;24.20;;;11.23;;
26080;SDS011;13991;51.174;4.438;2023-05-10T12:10:44;32.37;;;10.90;;
26080;SDS011;13991;51.174;4.438;2023-05-10T12:13:11;24.80;;;10.73;;
26080;SDS011;13991;51.174;4.438;2023-05-10T12:15:38;23.00;;;9.90;;
26080;SDS011;13991;51.174;4.438;2023-05-10T12:18:04;24.33;;;11.30;;
26080;SDS011;13991;51.174;4.438;2023-05-10T12:20:30;25.57;;;10.93;;
26080;SDS011;13991;51.174;4.438;2023-05-10T12:22:57;18.53;;;9.67;;
26080;SDS011;13991;51.174;4.438;2023-05-10T12:25:34;23.87;;;10.67;;
26080;SDS011;13991;51.174;4.438;2023-05-10T12:28:05;20.60;;;10.57;;
26080;SDS011;13991;51.174;4.438;2023-05-10T12:30:33;24.27;;;11.73;;
26080;SDS011;13991;51.174;4.438;2023-05-10T12:33:10;18.83;;;10.30;;
26080;SDS011;13991;51.174;4.438;2023-05-10T12:35:48;20.67;;;10.53;;
26080;SDS011;13991;51.174;4.438;2023-05-10T12:38:25;19.63;;;9.30;;
26080;SDS011;13991;51.174;4.438;2023-05-10T12:40:54;22.50;;;9.77;;
26080;SDS011;13991;51.174;4.438;2023-05-10T12:43:24;21.83;;;10.43;;
26080;SDS011;13991;51.174;4.438;2023-05-10T12:45:50;16.57;;;8.80;;
26080;SDS011;13991;51.174;4.438;2023-05-10T12:48:15;24.57;;;10.43;;
26080;SDS011;13991;51.174;4.438;2023-05-10T12:50:41;22.43;;;9.67;;
26080;SDS011;13991;51.174;4.438;2023-05-10T12:53:07;29.07;;;10.47;;
26080;SDS011;13991;51.174;4.438;2023-05-10T12:55:32;22.53;;;10.97;;
26080;SDS011;13991;51.174;4.438;2023-05-10T12:57:58;16.97;;;9.93;;
26080;SDS011;13991;51.174;4.438;2023-05-10T13:00:24;21.17;;;10.43;;
26080;SDS011;13991;51.174;4.438;2023-05-10T13:02:49;18.07;;;9.63;;
26080;SDS011;13991;51.174;4.438;2023-05-10T13:05:15;27.83;;;10.30;;
26080;SDS011;13991;51.174;4.438;2023-05-10T13:07:41;22.07;;;10.10;;
26080;SDS011;13991;51.174;4.438;2023-05-10T13:10:08;26.70;;;11.67;;
26080;SDS011;13991;51.174;4.438;2023-05-10T13:12:35;16.93;;;9.83;;
26080;SDS011;13991;51.174;4.438;2023-05-10T13:15:01;24.67;;;10.83;;
26080;SDS011;13991;51.174;4.438;2023-05-10T13:17:28;20.03;;;11.13;;
26080;SDS011;13991;51.174;4.438;2023-05-10T13:19:54;26.33;;;10.87;;
26080;SDS011;13991;51.174;4.438;2023-05-10T13:22:20;24.80;;;10.83;;
26080;SDS011;13991;51.174;4.438;2023-05-10T13:24:45;21.83;;;11.73;;
26080;SDS011;13991;51.174;4.438;2023-05-10T13:27:11;25.67;;;10.30;;
26080;SDS011;13991;51.174;4.438;2023-05-10T13:29:37;24.23;;;10.20;;
26080;SDS011;13991;51.174;4.438;2023-05-10T13:32:02;20.70;;;11.07;;
26080;SDS011;13991;51.174;4.438;2023-05-10T13:34:28;18.07;;;9.77;;
26080;SDS011;13991;51.174;4.438;2023-05-10T13:36:54;22.97;;;10.23;;
26080;SDS011;13991;51.174;4.438;2023-05-10T13:39:21;24.93;;;10.00;;
26080;SDS011;13991;51.174;4.438;2023-05-10T13:41:47;25.50;;;10.73;;
26080;SDS011;13991;51.174;4.438;2023-05-10T13:44:13;26.20;;;11.23;;
26080;SDS011;13991;51.174;4.438;2023-05-10T13:46:40;26.23;;;10.57;;
26080;SDS011;13991;51.174;4.438;2023-05-10T13:49:08;23.17;;;10.93;;
26080;SDS011;13991;51.174;4.438;2023-05-10T13:51:34;25.43;;;10.77;;
26080;SDS011;13991;51.174;4.438;2023-05-10T13:54:01;24.57;;;11.40;;
26080;SDS011;13991;51.174;4.438;2023-05-10T13:56:27;29.07;;;12.93;;
26080;SDS011;13991;51.174;4.438;2023-05-10T13:58:53;22.60;;;11.50;;
26080;SDS011;13991;51.174;4.438;2023-05-10T14:01:18;25.07;;;12.13;;
26080;SDS011;13991;51.174;4.438;2023-05-10T14:03:44;23.93;;;11.80;;
26080;SDS011;13991;51.174;4.438;2023-05-10T14:06:10;31.53;;;13.97;;
26080;SDS011;13991;51.174;4.438;2023-05-10T14:08:35;25.67;;;13.07;;
26080;SDS011;13991;51.174;4.438;2023-05-10T14:11:01;25.23;;;13.83;;
26080;SDS011;13991;51.174;4.438;2023-05-10T14:13:27;27.73;;;13.60;;
26080;SDS011;13991;51.174;4.438;2023-05-10T14:15:53;28.37;;;13.30;;
26080;SDS011;13991;51.174;4.438;2023-05-10T14:18:19;29.37;;;13.83;;
26080;SDS011;13991;51.174;4.438;2023-05-10T14:20:44;26.40;;;14.67;;
26080;SDS011;13991;51.174;4.438;2023-05-10T14:23:10;26.90;;;13.47;;
26080;SDS011;13991;51.174;4.438;2023-05-10T14:25:37;26.60;;;14.47;;
26080;SDS011;13991;51.174;4.438;2023-05-10T14:28:04;29.47;;;13.80;;
26080;SDS011;13991;51.174;4.438;2023-05-10T14:30:30;25.53;;;13.93;;
26080;SDS011;13991;51.174;4.438;2023-05-10T14:32:57;31.80;;;14.90;;
26080;SDS011;13991;51.174;4.438;2023-05-10T14:35:23;31.67;;;15.87;;
26080;SDS011;13991;51.174;4.438;2023-05-10T14:37:49;32.67;;;15.07;;
26080;SDS011;13991;51.174;4.438;2023-05-10T14:40:15;30.10;;;15.03;;
26080;SDS011;13991;51.174;4.438;2023-05-10T14:42:42;25.77;;;15.00;;
26080;SDS011;13991;51.174;4.438;2023-05-10T14:45:08;32.97;;;16.63;;
26080;SDS011;13991;51.174;4.438;2023-05-10T14:47:35;34.33;;;14.33;;
26080;SDS011;13991;51.174;4.438;2023-05-10T14:50:00;32.87;;;15.37;;
26080;SDS011;13991;51.174;4.438;2023-05-10T14:52:26;30.83;;;15.23;;
26080;SDS011;13991;51.174;4.438;2023-05-10T14:54:52;29.33;;;14.33;;
26080;SDS011;13991;51.174;4.438;2023-05-10T14:57:18;24.83;;;15.00;;
26080;SDS011;13991;51.174;4.438;2023-05-10T14:59:44;30.47;;;15.07;;
26080;SDS011;13991;51.174;4.438;2023-05-10T15:02:10;39.47;;;15.70;;